createdAt,value
2023-04-03T00:02:02.217Z,8.10
2023-04-03T00:04:28.941Z,8.10
2023-04-03T00:06:55.691Z,8.10
2023-04-03T00:09:22.328Z,8.10
2023-04-03T00:11:49.056Z,8.10
2023-04-03T00:14:15.768Z,8.00
2023-04-03T00:16:42.461Z,8.00
2023-04-03T00:19:09.315Z,8.00
2023-04-03T00:21:36.784Z,8.00
2023-04-03T00:24:03.731Z,8.00
2023-04-03T00:26:30.492Z,8.00
2023-04-03T00:28:57.300Z,8.00
2023-04-03T00:31:24.011Z,7.90
2023-04-03T00:33:50.744Z,7.90
2023-04-03T00:36:17.436Z,7.90
2023-04-03T00:38:44.195Z,7.90
2023-04-03T00:41:10.764Z,7.90
2023-04-03T00:43:37.500Z,7.90
2023-04-03T00:46:04.669Z,7.80
2023-04-03T00:48:42.373Z,7.80
2023-04-03T00:51:14.965Z,7.80
2023-04-03T00:53:47.572Z,7.80
2023-04-03T00:56:18.235Z,7.80
2023-04-03T00:59:16.108Z,7.80
2023-04-03T01:01:43.788Z,7.80
2023-04-03T01:04:46.863Z,7.70
2023-04-03T01:07:19.353Z,7.70
2023-04-03T01:09:48.083Z,7.70
2023-04-03T01:12:18.765Z,7.70
2023-04-03T01:14:47.392Z,7.70
2023-04-03T01:17:34.494Z,7.70
2023-04-03T01:20:18.862Z,7.60
2023-04-03T01:22:59.986Z,7.60
2023-04-03T01:25:27.331Z,7.60
2023-04-03T01:27:53.951Z,7.60
2023-04-03T01:30:24.757Z,7.60
2023-04-03T01:32:51.506Z,7.50
2023-04-03T01:35:18.110Z,7.50
2023-04-03T01:37:44.717Z,7.50
2023-04-03T01:40:11.731Z,7.50
2023-04-03T01:42:38.364Z,7.50
2023-04-03T01:45:05.481Z,7.50
2023-04-03T01:47:32.250Z,7.50
2023-04-03T01:49:58.824Z,7.40
2023-04-03T01:52:25.526Z,7.40
2023-04-03T01:54:52.224Z,7.40
2023-04-03T01:57:18.941Z,7.40
2023-04-03T01:59:45.649Z,7.40
2023-04-03T02:02:13.477Z,7.40
2023-04-03T02:04:40.072Z,7.30
2023-04-03T02:07:06.654Z,7.30
2023-04-03T02:09:33.278Z,7.30
2023-04-03T02:11:59.938Z,7.30
2023-04-03T02:14:28.565Z,7.30
2023-04-03T02:16:55.543Z,7.30
2023-04-03T02:19:22.181Z,7.20
2023-04-03T02:21:48.764Z,7.20
2023-04-03T02:24:15.462Z,7.20
2023-04-03T02:26:42.083Z,7.20
2023-04-03T02:29:08.656Z,7.20
2023-04-03T02:31:35.336Z,7.20
2023-04-03T02:34:01.968Z,7.20
2023-04-03T02:36:28.775Z,7.20
2023-04-03T02:38:56.437Z,7.10
2023-04-03T02:41:23.059Z,7.10
2023-04-03T02:43:49.709Z,7.10
2023-04-03T02:46:16.789Z,7.10
2023-04-03T02:48:43.527Z,7.00
2023-04-03T02:51:10.130Z,7.00
2023-04-03T02:53:36.708Z,7.00
2023-04-03T02:56:03.387Z,7.00
2023-04-03T02:58:29.961Z,7.00
2023-04-03T03:00:56.570Z,7.00
2023-04-03T03:03:23.242Z,6.90
2023-04-03T03:05:49.899Z,7.00
2023-04-03T03:08:16.603Z,6.90
2023-04-03T03:10:43.242Z,6.90
2023-04-03T03:13:09.854Z,6.90
2023-04-03T03:15:36.429Z,6.90
2023-04-03T03:18:03.340Z,6.90
2023-04-03T03:20:29.954Z,6.80
2023-04-03T03:22:56.569Z,6.80
2023-04-03T03:25:23.492Z,6.80
2023-04-03T03:27:50.118Z,6.80
2023-04-03T03:30:16.698Z,6.80
2023-04-03T03:32:43.353Z,6.80
2023-04-03T03:35:10.156Z,6.80
2023-04-03T03:37:36.877Z,6.70
2023-04-03T03:40:03.671Z,6.70
2023-04-03T03:42:30.572Z,6.70
2023-04-03T03:44:57.215Z,6.70
2023-04-03T03:47:23.979Z,6.70
2023-04-03T03:49:51.034Z,6.70
2023-04-03T03:52:17.664Z,6.60
2023-04-03T03:54:44.339Z,6.60
2023-04-03T03:57:11.049Z,6.60
2023-04-03T03:59:37.748Z,6.60
2023-04-03T04:02:04.706Z,6.60
2023-04-03T04:04:31.494Z,6.60
2023-04-03T04:06:58.197Z,6.50
2023-04-03T04:09:24.908Z,6.50
2023-04-03T04:11:51.507Z,6.50
2023-04-03T04:14:18.202Z,6.50
2023-04-03T04:16:44.824Z,6.50
2023-04-03T04:19:11.468Z,6.50
2023-04-03T04:21:38.223Z,6.40
2023-04-03T04:24:05.163Z,6.40
2023-04-03T04:26:31.899Z,6.40
2023-04-03T04:28:58.580Z,6.40
2023-04-03T04:31:25.497Z,6.30
2023-04-03T04:33:52.208Z,6.30
2023-04-03T04:36:18.903Z,6.30
2023-04-03T04:38:45.999Z,6.30
2023-04-03T04:41:12.850Z,6.30
2023-04-03T04:43:39.424Z,6.30
2023-04-03T04:46:08.658Z,6.30
2023-04-03T04:48:36.064Z,6.20
2023-04-03T04:51:02.964Z,6.20
2023-04-03T04:53:29.682Z,6.20
2023-04-03T04:55:56.424Z,6.20
2023-04-03T04:58:23.079Z,6.20
2023-04-03T05:00:49.656Z,6.20
2023-04-03T05:03:16.635Z,6.20
2023-04-03T05:05:43.231Z,6.20
2023-04-03T05:08:10.068Z,6.20
2023-04-03T05:10:36.652Z,6.10
2023-04-03T05:13:06.027Z,6.10
2023-04-03T05:15:32.780Z,6.10
2023-04-03T05:17:59.444Z,6.10
2023-04-03T05:20:26.397Z,6.10
2023-04-03T05:22:53.106Z,6.10
2023-04-03T05:25:19.739Z,6.10
2023-04-03T05:27:46.444Z,6.10
2023-04-03T05:30:13.449Z,6.00
2023-04-03T05:32:40.120Z,6.00
2023-04-03T05:35:08.385Z,6.00
2023-04-03T05:37:35.638Z,6.00
2023-04-03T05:40:03.214Z,6.00
2023-04-03T05:42:29.879Z,6.00
2023-04-03T05:44:56.714Z,6.00
2023-04-03T05:47:23.407Z,6.00
2023-04-03T05:49:50.364Z,6.00
2023-04-03T05:52:29.940Z,6.00
2023-04-03T05:54:57.406Z,6.00
2023-04-03T05:57:24.629Z,6.00
2023-04-03T05:59:51.317Z,6.00
2023-04-03T06:02:21.127Z,6.00
2023-04-03T06:04:48.917Z,6.00
2023-04-03T06:07:18.722Z,6.10
2023-04-03T06:09:45.449Z,6.10
2023-04-03T06:12:12.393Z,6.10
2023-04-03T06:14:39.016Z,6.20
2023-04-03T06:17:07.192Z,6.20
2023-04-03T06:19:34.265Z,6.30
2023-04-03T06:22:01.244Z,6.30
2023-04-03T06:24:28.216Z,6.30
2023-04-03T06:26:54.929Z,6.30
2023-04-03T06:29:21.738Z,6.40
2023-04-03T06:31:49.024Z,6.40
2023-04-03T06:34:16.855Z,6.40
2023-04-03T06:36:44.158Z,6.50
2023-04-03T06:39:15.532Z,6.60
2023-04-03T06:41:42.203Z,6.60
2023-04-03T06:44:11.949Z,6.60
2023-04-03T06:46:39.762Z,6.70
2023-04-03T06:49:08.787Z,6.70
2023-04-03T06:51:36.255Z,6.80
2023-04-03T06:54:04.278Z,6.90
2023-04-03T06:56:31.142Z,7.00
2023-04-03T06:58:58.757Z,7.00
2023-04-03T07:01:28.905Z,7.10
2023-04-03T07:03:56.478Z,7.20
2023-04-03T07:06:23.567Z,7.30
2023-04-03T07:08:50.393Z,7.40
2023-04-03T07:11:17.988Z,7.50
2023-04-03T07:13:44.735Z,7.50
2023-04-03T07:16:12.108Z,7.60
2023-04-03T07:18:38.745Z,7.60
2023-04-03T07:21:05.546Z,7.70
2023-04-03T07:23:32.343Z,7.80
2023-04-03T07:25:59.013Z,7.80
2023-04-03T07:28:26.888Z,7.90
2023-04-03T07:30:59.968Z,8.00
2023-04-03T07:33:27.223Z,8.10
2023-04-03T07:35:53.987Z,8.10
2023-04-03T07:38:20.728Z,8.20
2023-04-03T07:40:49.100Z,8.30
2023-04-03T07:43:17.133Z,8.40
2023-04-03T07:45:44.394Z,8.60
2023-04-03T07:48:12.595Z,8.70
2023-04-03T07:50:41.647Z,8.70
2023-04-03T07:53:08.875Z,8.80
2023-04-03T07:55:38.532Z,8.90
2023-04-03T07:58:05.867Z,8.90
2023-04-03T08:00:32.747Z,9.00
2023-04-03T08:02:59.444Z,9.10
2023-04-03T08:05:26.428Z,9.40
2023-04-03T08:07:53.122Z,9.20
2023-04-03T08:10:19.848Z,9.30
2023-04-03T08:12:49.985Z,9.40
2023-04-03T08:15:17.285Z,9.50
2023-04-03T08:17:43.852Z,9.60
2023-04-03T08:20:11.488Z,9.60
2023-04-03T08:22:38.212Z,9.70
2023-04-03T08:25:05.246Z,10.00
2023-04-03T08:27:32.588Z,10.10
2023-04-03T08:29:59.392Z,10.40
2023-04-03T08:32:26.694Z,10.50
2023-04-03T08:34:54.039Z,10.60
2023-04-03T08:37:20.806Z,10.80
2023-04-03T08:39:48.805Z,10.80
2023-04-03T08:42:35.146Z,10.80
2023-04-03T08:45:11.384Z,11.10
2023-04-03T08:47:41.824Z,11.10
2023-04-03T08:50:16.558Z,11.20
2023-04-03T08:52:48.857Z,11.50
2023-04-03T08:55:44.754Z,11.50
2023-04-03T08:58:20.363Z,11.50
2023-04-03T09:01:19.964Z,11.50
2023-04-03T09:03:46.762Z,11.60
2023-04-03T09:06:25.231Z,11.60
2023-04-03T09:08:54.779Z,11.80
2023-04-03T09:11:40.047Z,11.90
2023-04-03T09:14:39.174Z,11.90
2023-04-03T09:17:15.899Z,12.00
2023-04-03T09:20:13.229Z,12.30
2023-04-03T09:22:49.702Z,12.30
2023-04-03T09:25:23.030Z,12.50
2023-04-03T09:27:50.679Z,12.60
2023-04-03T09:30:20.582Z,12.60
2023-04-03T09:32:50.049Z,12.80
2023-04-03T09:35:40.609Z,13.00
2023-04-03T09:38:14.282Z,12.90
2023-04-03T09:40:44.923Z,13.00
2023-04-03T09:43:32.044Z,12.90
2023-04-03T09:46:25.967Z,13.00
2023-04-03T09:49:07.558Z,13.00
2023-04-03T09:51:36.071Z,13.10
2023-04-03T09:54:26.449Z,13.10
2023-04-03T09:56:55.072Z,13.10
2023-04-03T09:59:22.355Z,13.00
2023-04-03T10:02:22.038Z,13.00
2023-04-03T10:04:53.075Z,12.90
2023-04-03T10:07:31.253Z,12.90
2023-04-03T10:10:04.730Z,12.90
2023-04-03T10:12:31.645Z,13.10
2023-04-03T10:15:01.585Z,13.10
2023-04-03T10:17:35.827Z,13.30
2023-04-03T10:20:17.438Z,13.40
2023-04-03T10:23:05.389Z,13.40
2023-04-03T10:25:41.099Z,13.40
2023-04-03T10:28:21.651Z,13.60
2023-04-03T10:31:13.274Z,13.70
2023-04-03T10:34:01.339Z,13.70
2023-04-03T10:36:43.815Z,13.80
2023-04-03T10:39:47.505Z,14.00
2023-04-03T10:42:34.771Z,14.00
2023-04-03T10:45:19.987Z,14.20
2023-04-03T10:48:07.932Z,14.30
2023-04-03T10:51:20.841Z,14.30
2023-04-03T10:54:01.727Z,14.50
2023-04-03T10:56:39.304Z,14.60
2023-04-03T10:59:34.540Z,14.80
2023-04-03T11:02:08.602Z,14.70
2023-04-03T11:04:41.634Z,14.70
2023-04-03T11:07:18.618Z,14.80
2023-04-03T11:09:47.930Z,15.00
2023-04-03T11:12:22.059Z,15.00
2023-04-03T11:14:51.478Z,15.10
2023-04-03T11:17:23.960Z,15.30
2023-04-03T11:20:15.277Z,15.30
2023-04-03T11:22:50.314Z,15.40
2023-04-03T11:25:24.069Z,15.60
2023-04-03T11:28:05.420Z,15.60
2023-04-03T11:30:45.811Z,15.60
2023-04-03T11:33:30.867Z,15.60
2023-04-03T11:36:19.011Z,15.70
2023-04-03T11:38:56.234Z,15.90
2023-04-03T11:41:31.594Z,16.00
2023-04-03T11:44:05.686Z,16.20
2023-04-03T11:46:53.703Z,16.20
2023-04-03T11:50:02.174Z,16.30
2023-04-03T11:52:43.768Z,16.40
2023-04-03T11:55:23.052Z,16.50
2023-04-03T11:57:58.715Z,16.40
2023-04-03T12:00:54.993Z,16.50
2023-04-03T12:03:25.054Z,16.80
2023-04-03T12:06:08.120Z,16.60
2023-04-03T12:08:35.189Z,16.70
2023-04-03T12:11:11.395Z,16.80
2023-04-03T12:13:39.611Z,16.80
2023-04-03T12:16:08.298Z,17.10
2023-04-03T12:18:44.013Z,17.20
2023-04-03T12:21:13.553Z,17.20
2023-04-03T12:23:58.539Z,17.40
2023-04-03T12:26:35.409Z,17.30
2023-04-03T12:29:21.497Z,17.50
2023-04-03T12:32:07.204Z,17.80
2023-04-03T12:34:58.775Z,17.80
2023-04-03T12:37:47.166Z,17.80
2023-04-03T12:40:40.368Z,18.00
2023-04-03T12:43:24.610Z,17.80
2023-04-03T12:46:09.684Z,18.10
2023-04-03T12:48:45.456Z,17.80
2023-04-03T12:51:27.444Z,18.30
2023-04-03T12:54:01.273Z,18.40
2023-04-03T12:56:33.833Z,18.60
2023-04-03T12:59:27.760Z,18.50
2023-04-03T13:02:01.940Z,18.60
2023-04-03T13:04:31.322Z,18.70
2023-04-03T13:06:58.475Z,18.80
2023-04-03T13:09:28.839Z,18.60
2023-04-03T13:12:02.397Z,18.80
2023-04-03T13:14:32.998Z,19.00
2023-04-03T13:17:07.953Z,19.00
2023-04-03T13:19:34.530Z,19.00
2023-04-03T13:22:08.426Z,18.90
2023-04-03T13:24:38.759Z,19.30
2023-04-03T13:27:08.028Z,19.20
2023-04-03T13:29:37.885Z,19.30
2023-04-03T13:32:06.248Z,19.40
2023-04-03T13:34:46.565Z,19.40
2023-04-03T13:37:26.258Z,19.50
2023-04-03T13:39:59.228Z,19.30
2023-04-03T13:42:31.346Z,19.50
2023-04-03T13:45:15.880Z,19.60
2023-04-03T13:47:45.003Z,19.60
2023-04-03T13:50:21.941Z,19.50
2023-04-03T13:52:53.875Z,19.60
2023-04-03T13:55:28.735Z,19.70
2023-04-03T13:58:01.385Z,19.70
2023-04-03T14:00:55.733Z,19.70
2023-04-03T14:03:27.124Z,19.70
2023-04-03T14:05:55.508Z,19.70
2023-04-03T14:08:29.450Z,19.70
2023-04-03T14:11:02.923Z,19.70
2023-04-03T14:13:33.477Z,19.70
2023-04-03T14:16:12.920Z,19.80
2023-04-03T14:18:42.556Z,19.80
2023-04-03T14:21:13.164Z,19.70
2023-04-03T14:23:40.169Z,19.80
2023-04-03T14:26:18.968Z,19.80
2023-04-03T14:28:47.926Z,19.80
2023-04-03T14:31:16.877Z,19.80
2023-04-03T14:33:43.568Z,19.80
2023-04-03T14:36:17.615Z,19.80
2023-04-03T14:38:45.692Z,19.80
2023-04-03T14:41:18.175Z,19.80
2023-04-03T14:43:46.703Z,19.80
2023-04-03T14:46:19.552Z,19.70
2023-04-03T14:48:46.784Z,19.70
2023-04-03T14:51:14.885Z,19.70
2023-04-03T14:53:44.628Z,19.70
2023-04-03T14:56:19.022Z,19.70
2023-04-03T14:58:50.347Z,19.60
2023-04-03T15:01:21.652Z,19.60
2023-04-03T15:03:57.449Z,19.60
2023-04-03T15:06:26.651Z,19.50
2023-04-03T15:08:53.681Z,19.50
2023-04-03T15:11:21.219Z,19.50
2023-04-03T15:13:48.417Z,19.50
2023-04-03T15:16:23.121Z,19.50
2023-04-03T15:18:50.158Z,19.40
2023-04-03T15:21:17.673Z,19.40
2023-04-03T15:23:53.187Z,19.30
2023-04-03T15:26:19.922Z,19.30
2023-04-03T15:28:46.648Z,19.30
2023-04-03T15:31:13.482Z,19.20
2023-04-03T15:33:40.541Z,18.90
2023-04-03T15:36:16.778Z,19.10
2023-04-03T15:38:56.630Z,19.10
2023-04-03T15:41:23.482Z,19.10
2023-04-03T15:43:50.075Z,19.10
2023-04-03T15:46:17.071Z,19.00
2023-04-03T15:48:43.939Z,19.00
2023-04-03T15:51:10.840Z,19.00
2023-04-03T15:53:44.377Z,18.90
2023-04-03T15:56:12.888Z,18.90
2023-04-03T15:58:39.526Z,18.90
2023-04-03T16:01:08.122Z,18.80
2023-04-03T16:03:35.190Z,18.70
2023-04-03T16:06:02.694Z,18.70
2023-04-03T16:08:29.397Z,18.60
2023-04-03T16:10:56.170Z,18.60
2023-04-03T16:13:22.858Z,18.50
2023-04-03T16:15:50.356Z,18.50
2023-04-03T16:18:18.766Z,18.50
2023-04-03T16:20:46.666Z,18.40
2023-04-03T16:23:13.435Z,18.40
2023-04-03T16:25:40.804Z,18.30
2023-04-03T16:28:07.619Z,18.30
2023-04-03T16:30:34.368Z,18.20
2023-04-03T16:33:01.049Z,18.20
2023-04-03T16:35:28.311Z,18.10
2023-04-03T16:37:54.921Z,18.00
2023-04-03T16:40:21.589Z,17.90
2023-04-03T16:42:48.235Z,17.90
2023-04-03T16:45:15.053Z,17.80
2023-04-03T16:47:41.846Z,17.70
2023-04-03T16:50:09.378Z,17.70
2023-04-03T16:52:36.208Z,17.60
2023-04-03T16:55:03.370Z,17.50
2023-04-03T16:57:30.010Z,17.50
2023-04-03T16:59:56.768Z,17.40
2023-04-03T17:02:27.852Z,17.40
2023-04-03T17:04:54.951Z,17.30
2023-04-03T17:07:22.940Z,17.30
2023-04-03T17:09:49.906Z,17.20
2023-04-03T17:12:17.118Z,17.10
2023-04-03T17:14:44.034Z,17.10
2023-04-03T17:17:11.063Z,17.00
2023-04-03T17:19:38.902Z,17.00
2023-04-03T17:22:05.707Z,16.90
2023-04-03T17:24:32.321Z,16.90
2023-04-03T17:26:58.954Z,16.80
2023-04-03T17:29:25.704Z,16.60
2023-04-03T17:31:52.328Z,16.50
2023-04-03T17:34:19.049Z,16.50
2023-04-03T17:36:45.752Z,16.50
2023-04-03T17:39:12.660Z,16.40
2023-04-03T17:41:39.500Z,16.40
2023-04-03T17:44:06.663Z,16.30
2023-04-03T17:46:35.223Z,16.20
2023-04-03T17:49:03.355Z,16.20
2023-04-03T17:51:30.411Z,16.10
2023-04-03T17:53:57.052Z,16.00
2023-04-03T17:56:27.159Z,16.00
2023-04-03T17:58:55.722Z,15.90
2023-04-03T18:01:24.041Z,15.90
2023-04-03T18:03:53.440Z,15.80
2023-04-03T18:06:22.128Z,15.70
2023-04-03T18:08:51.238Z,15.70
2023-04-03T18:11:18.890Z,15.60
2023-04-03T18:13:46.358Z,15.60
2023-04-03T18:16:14.219Z,15.50
2023-04-03T18:18:41.296Z,15.40
2023-04-03T18:21:13.857Z,15.40
2023-04-03T18:23:45.002Z,15.30
2023-04-03T18:26:16.540Z,15.30
2023-04-03T18:28:53.832Z,15.20
2023-04-03T18:31:21.403Z,14.90
2023-04-03T18:33:48.034Z,15.00
2023-04-03T18:38:46.352Z,14.90
2023-04-03T18:41:13.531Z,14.80
2023-04-03T18:43:40.438Z,14.60
2023-04-03T18:46:07.344Z,14.60
2023-04-03T18:48:35.444Z,14.60
2023-04-03T18:51:02.386Z,14.50
2023-04-03T18:53:29.017Z,14.50
2023-04-03T18:55:55.749Z,14.40
2023-04-03T18:58:22.465Z,14.40
2023-04-03T19:00:49.209Z,14.30
2023-04-03T19:03:16.007Z,14.20
2023-04-03T19:05:43.144Z,14.20
2023-04-03T19:08:09.976Z,14.10
2023-04-03T19:10:37.009Z,14.10
2023-04-03T19:13:03.716Z,14.00
2023-04-03T19:15:30.449Z,14.00
2023-04-03T19:17:57.081Z,13.90
2023-04-03T19:20:23.915Z,13.80
2023-04-03T19:22:50.661Z,13.80
2023-04-03T19:25:17.418Z,13.70
2023-04-03T19:27:44.314Z,13.70
2023-04-03T19:30:12.220Z,13.60
2023-04-03T19:32:38.990Z,13.60
2023-04-03T19:35:06.320Z,13.50
2023-04-03T19:37:33.422Z,13.50
2023-04-03T19:40:00.439Z,13.40
2023-04-03T19:42:31.377Z,13.40
2023-04-03T19:44:58.755Z,13.30
2023-04-03T19:47:26.122Z,13.30
2023-04-03T19:49:52.772Z,13.20
2023-04-03T19:52:19.477Z,13.10
2023-04-03T19:54:46.139Z,13.10
2023-04-03T19:57:13.188Z,13.10
2023-04-03T19:59:39.937Z,13.00
2023-04-03T20:02:07.017Z,13.00
2023-04-03T20:04:33.896Z,12.90
2023-04-03T20:07:02.012Z,12.90
2023-04-03T20:09:28.894Z,12.80
2023-04-03T20:11:57.954Z,12.80
2023-04-03T20:14:24.617Z,12.70
2023-04-03T20:16:51.226Z,12.70
2023-04-03T20:19:17.897Z,12.60
2023-04-03T20:21:45.247Z,12.60
2023-04-03T20:24:13.884Z,12.60
2023-04-03T20:26:46.221Z,12.50
2023-04-03T20:29:14.701Z,12.40
2023-04-03T20:31:42.205Z,12.40
2023-04-03T20:34:09.449Z,12.40
2023-04-03T20:36:39.441Z,12.30
2023-04-03T20:39:06.270Z,12.30
2023-04-03T20:41:35.540Z,12.30
2023-04-03T20:44:02.494Z,12.20
2023-04-03T20:46:42.210Z,12.20
2023-04-03T20:49:19.318Z,12.10
2023-04-03T20:51:47.103Z,12.10
2023-04-03T20:54:14.801Z,12.00
2023-04-03T20:56:41.752Z,12.00
2023-04-03T20:59:10.347Z,12.00
2023-04-03T21:01:37.132Z,11.90
2023-04-03T21:04:30.451Z,11.90
2023-04-03T21:07:34.607Z,11.80
2023-04-03T21:10:38.926Z,11.80
2023-04-03T21:13:43.112Z,11.70
2023-04-03T21:16:09.691Z,11.70
2023-04-03T21:18:39.104Z,11.60
2023-04-03T21:21:05.937Z,11.60
2023-04-03T21:23:33.174Z,11.60
2023-04-03T21:26:00.644Z,11.50
2023-04-03T21:28:27.480Z,11.50
2023-04-03T21:30:54.229Z,11.50
2023-04-03T21:33:21.228Z,11.40
2023-04-03T21:35:48.041Z,11.40
2023-04-03T21:38:15.556Z,11.40
2023-04-03T21:40:46.560Z,11.30
2023-04-03T21:43:13.589Z,11.30
2023-04-03T21:45:40.770Z,11.20
2023-04-03T21:48:10.199Z,11.20
2023-04-03T21:50:37.253Z,11.20
2023-04-03T21:53:04.011Z,11.10
2023-04-03T21:55:30.600Z,11.10
2023-04-03T21:57:58.175Z,11.10
2023-04-03T22:00:25.068Z,11.00
2023-04-03T22:02:57.814Z,11.00
2023-04-03T22:05:35.955Z,11.00
2023-04-03T22:08:02.770Z,10.90
2023-04-03T22:10:29.588Z,10.90
2023-04-03T22:12:56.279Z,10.90
2023-04-03T22:15:23.110Z,10.80
2023-04-03T22:17:49.769Z,10.80
2023-04-03T22:20:16.893Z,10.80
2023-04-03T22:22:43.478Z,10.70
2023-04-03T22:25:10.559Z,10.70
2023-04-03T22:27:37.412Z,10.70
2023-04-03T22:30:04.481Z,10.60
2023-04-03T22:32:31.178Z,10.60
2023-04-03T22:35:00.210Z,10.60
2023-04-03T22:37:27.560Z,10.50
2023-04-03T22:39:54.161Z,10.50
2023-04-03T22:42:20.724Z,10.50
2023-04-03T22:44:47.651Z,10.50
2023-04-03T22:47:14.261Z,10.40
2023-04-03T22:49:41.237Z,10.40
2023-04-03T22:52:07.801Z,10.40
2023-04-03T22:54:34.391Z,10.30
2023-04-03T22:57:01.010Z,10.30
2023-04-03T22:59:27.716Z,10.20
2023-04-03T23:01:54.462Z,10.20
2023-04-03T23:04:21.108Z,10.20
2023-04-03T23:06:47.862Z,10.20
2023-04-03T23:09:14.524Z,10.20
2023-04-03T23:11:41.316Z,10.10
2023-04-03T23:14:07.987Z,10.10
2023-04-03T23:16:34.657Z,10.10
2023-04-03T23:19:01.407Z,10.00
2023-04-03T23:21:28.163Z,10.00
2023-04-03T23:23:54.910Z,10.00
2023-04-03T23:26:21.468Z,9.90
2023-04-03T23:28:48.544Z,9.90
2023-04-03T23:31:15.599Z,9.90
2023-04-03T23:33:44.007Z,9.90
2023-04-03T23:36:12.880Z,9.80
2023-04-03T23:38:39.624Z,9.80
2023-04-03T23:41:06.641Z,9.80
2023-04-03T23:43:34.009Z,9.70
2023-04-03T23:46:00.701Z,9.70
2023-04-03T23:48:27.345Z,9.70
2023-04-03T23:50:59.787Z,9.70
2023-04-03T23:53:26.394Z,9.60
2023-04-03T23:55:53.119Z,9.60
2023-04-03T23:58:19.715Z,9.60
